Time;durP1;ratioP1;P1;durP2;ratioP2;P2;SDS_P1;SDS_P2;PMS_P1;PMS_P2;Temp;Humidity;BMP_temperature;BMP_pressure;BME280_temperature;BME280_humidity;BME280_pressure;Samples;Min_cycle;Max_cycle;Signal;HPM_P1;HPM_P2
2021/12/19 00:04:33;;;;;;;22.75;12.77;;;7.50;99.90;;;;;;5040512;28;20052;-73
2021/12/19 00:09:46;;;;;;;19.75;11.85;;;7.50;99.90;;;;;;5038495;28;20061;-72
2021/12/19 00:12:12;;;;;;;23.65;12.88;;;7.50;99.90;;;;;;5013898;28;20140;-72
2021/12/19 00:14:38;;;;;;;23.83;13.37;;;7.50;99.90;;;;;;5029211;28;20509;-72
2021/12/19 00:17:04;;;;;;;26.75;14.68;;;7.50;99.90;;;;;;5004512;28;20107;-73
2021/12/19 00:19:31;;;;;;;23.67;13.68;;;7.50;99.90;;;;;;5011097;28;20083;-72
2021/12/19 00:21:56;;;;;;;22.47;13.00;;;7.50;99.90;;;;;;5016157;28;20053;-72
2021/12/19 00:24:24;;;;;;;29.77;14.48;;;7.50;99.90;;;;;;5006874;28;20044;-73
2021/12/19 00:26:50;;;;;;;27.30;14.25;;;7.50;99.90;;;;;;5025141;28;20476;-72
2021/12/19 00:29:16;;;;;;;31.65;14.93;;;7.50;99.90;;;;;;5029613;28;20491;-73
2021/12/19 00:31:45;;;;;;;33.33;15.20;;;7.60;99.90;;;;;;5008334;28;20107;-73
2021/12/19 00:34:13;;;;;;;25.70;14.52;;;7.50;99.90;;;;;;5008785;28;20042;-72
2021/12/19 00:36:40;;;;;;;31.80;14.77;;;7.50;99.90;;;;;;4992693;28;20050;-72
2021/12/19 00:39:06;;;;;;;27.33;15.18;;;7.50;99.90;;;;;;5008991;28;20045;-72
2021/12/19 00:41:32;;;;;;;29.90;14.85;;;7.60;99.90;;;;;;5009261;28;20055;-72
2021/12/19 00:44:11;;;;;;;32.63;15.88;;;7.50;99.90;;;;;;5009773;28;20098;-72
2021/12/19 00:46:49;;;;;;;34.58;16.75;;;7.60;99.90;;;;;;5025363;28;20092;-73
2021/12/19 00:49:16;;;;;;;31.85;16.38;;;7.60;99.90;;;;;;5043861;28;20509;-73
2021/12/19 00:51:42;;;;;;;31.48;16.08;;;7.60;99.90;;;;;;5011744;28;20107;-72
2021/12/19 00:54:11;;;;;;;28.80;15.57;;;7.50;99.90;;;;;;5044545;28;20081;-72
2021/12/19 00:56:39;;;;;;;28.45;15.73;;;7.60;99.90;;;;;;5038237;28;20053;-72
2021/12/19 00:59:06;;;;;;;25.02;15.82;;;7.60;99.90;;;;;;5009878;28;20132;-72
2021/12/19 01:01:33;;;;;;;28.65;15.27;;;7.60;99.90;;;;;;5008837;28;20088;-72
2021/12/19 01:04:05;;;;;;;22.67;14.00;;;7.60;99.90;;;;;;5045351;28;20519;-72
2021/12/19 01:06:31;;;;;;;28.33;14.95;;;7.70;99.90;;;;;;5030374;28;20045;-72
2021/12/19 01:08:57;;;;;;;25.55;15.23;;;7.70;99.90;;;;;;4992019;28;20068;-72
2021/12/19 01:11:24;;;;;;;24.02;14.63;;;7.70;99.90;;;;;;5030571;28;20491;-72
2021/12/19 01:13:50;;;;;;;25.25;13.65;;;7.80;99.90;;;;;;5029817;28;20056;-72
2021/12/19 01:16:16;;;;;;;23.13;13.60;;;7.60;99.90;;;;;;5014162;28;20053;-72
2021/12/19 01:18:42;;;;;;;21.58;10.30;;;7.60;99.90;;;;;;5006944;28;20042;-72
2021/12/19 01:21:08;;;;;;;13.60;7.72;;;7.70;99.90;;;;;;5047120;28;20458;-72
2021/12/19 01:23:34;;;;;;;10.38;6.53;;;7.70;99.90;;;;;;5030395;28;20041;-71
2021/12/19 01:26:00;;;;;;;11.57;6.30;;;7.70;99.90;;;;;;5028543;28;20044;-72
2021/12/19 01:28:26;;;;;;;10.15;6.15;;;7.60;99.90;;;;;;5026709;28;20041;-72
2021/12/19 01:30:52;;;;;;;11.20;5.83;;;7.60;99.90;;;;;;5026810;28;20410;-72
2021/12/19 01:33:18;;;;;;;13.35;6.50;;;7.60;99.90;;;;;;5010245;28;20045;-72
2021/12/19 01:35:44;;;;;;;12.45;6.40;;;7.60;99.90;;;;;;5040419;28;20095;-72
2021/12/19 01:38:10;;;;;;;9.00;4.82;;;7.60;99.90;;;;;;5029644;28;20368;-71
2021/12/19 01:40:36;;;;;;;7.85;4.78;;;7.60;99.90;;;;;;5029471;28;20044;-72
2021/12/19 01:43:03;;;;;;;8.98;4.50;;;7.60;99.90;;;;;;5028644;28;20483;-72
2021/12/19 01:45:38;;;;;;;7.05;3.97;;;7.60;99.90;;;;;;5046231;28;20049;-72
2021/12/19 01:48:08;;;;;;;6.40;2.63;;;7.60;99.90;;;;;;5045557;28;20466;-72
2021/12/19 01:50:34;;;;;;;7.38;2.80;;;7.60;99.90;;;;;;5045777;28;20040;-72
2021/12/19 01:53:02;;;;;;;5.28;2.50;;;7.60;99.90;;;;;;5039506;28;20526;-72
2021/12/19 01:55:29;;;;;;;5.68;2.50;;;7.50;99.90;;;;;;5029709;28;20045;-72
2021/12/19 01:57:55;;;;;;;5.47;2.40;;;7.60;99.90;;;;;;5025828;28;20052;-72
2021/12/19 02:00:31;;;;;;;4.53;2.50;;;7.50;99.90;;;;;;5042146;28;20037;-72
2021/12/19 02:02:58;;;;;;;6.57;2.45;;;7.50;99.90;;;;;;5026696;28;20053;-72
2021/12/19 02:05:26;;;;;;;4.03;2.22;;;7.50;99.90;;;;;;5024301;28;20107;-72
2021/12/19 02:07:54;;;;;;;4.30;2.10;;;7.50;99.90;;;;;;5041748;28;20072;-72
2021/12/19 02:10:21;;;;;;;4.63;1.92;;;7.40;99.90;;;;;;5013123;28;20045;-72
2021/12/19 02:12:49;;;;;;;4.88;1.98;;;7.40;99.90;;;;;;5028614;28;20559;-72
2021/12/19 02:15:19;;;;;;;5.00;2.22;;;7.40;99.90;;;;;;5028701;28;20439;-75
2021/12/19 02:17:46;;;;;;;4.68;2.25;;;7.50;99.90;;;;;;5026950;28;20045;-75
2021/12/19 02:20:13;;;;;;;2.90;1.77;;;7.50;99.90;;;;;;5009724;28;20046;-74
2021/12/19 02:22:39;;;;;;;4.10;2.00;;;7.50;99.90;;;;;;5025588;28;20079;-74
2021/12/19 02:25:06;;;;;;;3.30;1.60;;;7.50;99.90;;;;;;5027674;28;20108;-74
2021/12/19 02:27:33;;;;;;;3.35;1.48;;;7.50;99.90;;;;;;5044937;28;20067;-74
2021/12/19 02:30:04;;;;;;;4.25;1.50;;;7.50;99.90;;;;;;5029237;28;20055;-74
2021/12/19 02:32:31;;;;;;;3.20;1.50;;;7.40;99.90;;;;;;5031225;28;20063;-74
2021/12/19 02:35:00;;;;;;;3.90;1.45;;;7.50;99.90;;;;;;5026491;28;20215;-76
2021/12/19 02:48:14;;;;;;;5.60;1.73;;;7.50;99.90;;;;;;5049062;28;20064;-73
2021/12/19 02:50:52;;;;;;;4.65;1.60;;;7.40;99.90;;;;;;5020090;28;20057;-73
2021/12/19 02:53:32;;;;;;;3.88;1.88;;;7.40;99.90;;;;;;5048251;28;20041;-73
2021/12/19 02:56:01;;;;;;;4.93;2.13;;;7.40;99.90;;;;;;5030033;28;20460;-75
2021/12/19 02:58:28;;;;;;;4.80;2.33;;;7.40;99.90;;;;;;4996468;28;20378;-75
2021/12/19 03:00:53;;;;;;;4.25;2.30;;;7.50;99.90;;;;;;5017615;28;20043;-75
2021/12/19 03:03:19;;;;;;;8.05;2.90;;;7.40;99.90;;;;;;5031659;28;20473;-76
2021/12/19 03:05:45;;;;;;;7.07;2.35;;;7.30;99.90;;;;;;5031768;28;20037;-75
2021/12/19 03:08:12;;;;;;;5.40;2.38;;;7.40;99.90;;;;;;5049356;28;20053;-75
2021/12/19 03:18:27;;;;;;;5.00;2.30;;;7.40;99.90;;;;;;5014497;28;20053;-75
2021/12/19 03:20:53;;;;;;;5.30;2.40;;;7.40;99.90;;;;;;5012193;28;20107;-76
2021/12/19 03:23:20;;;;;;;5.53;2.85;;;7.40;99.90;;;;;;5012025;28;20053;-76
2021/12/19 03:25:49;;;;;;;6.97;2.83;;;7.30;99.90;;;;;;5044134;28;20411;-75
2021/12/19 03:28:15;;;;;;;5.43;3.03;;;7.30;99.90;;;;;;5044727;28;20057;-75
2021/12/19 03:30:44;;;;;;;7.35;3.25;;;7.40;99.90;;;;;;5031262;28;20057;-75
2021/12/19 03:33:11;;;;;;;6.28;2.78;;;7.40;99.90;;;;;;5028074;28;20048;-75
2021/12/19 03:35:39;;;;;;;6.13;3.22;;;7.40;99.90;;;;;;5019844;28;20380;-75
2021/12/19 03:38:08;;;;;;;9.23;3.03;;;7.40;99.90;;;;;;5031629;28;20164;-75
2021/12/19 03:40:39;;;;;;;6.00;2.90;;;7.40;99.90;;;;;;5049753;28;20076;-75
2021/12/19 03:43:11;;;;;;;5.18;2.70;;;7.40;99.90;;;;;;5048131;28;20124;-75
2021/12/19 03:45:38;;;;;;;6.18;2.75;;;7.40;99.90;;;;;;5011715;28;20049;-75
2021/12/19 03:48:05;;;;;;;4.53;1.73;;;7.30;99.90;;;;;;5027963;28;20140;-75
2021/12/19 03:50:33;;;;;;;2.50;1.30;;;7.30;99.90;;;;;;5027780;28;20045;-75
2021/12/19 03:53:02;;;;;;;2.67;1.10;;;7.30;99.90;;;;;;5026953;28;20051;-75
2021/12/19 03:55:29;;;;;;;2.60;0.90;;;7.30;99.90;;;;;;5027415;28;20056;-75
2021/12/19 03:57:57;;;;;;;3.67;1.27;;;7.30;99.90;;;;;;5043682;28;20053;-76
2021/12/19 04:00:25;;;;;;;2.67;1.23;;;7.20;99.90;;;;;;5047478;28;20518;-75
2021/12/19 04:02:57;;;;;;;5.20;1.73;;;7.10;99.90;;;;;;5030800;28;20411;-75
2021/12/19 04:05:23;;;;;;;5.00;1.83;;;7.10;99.90;;;;;;5047179;28;20145;-76
2021/12/19 04:07:49;;;;;;;4.60;1.50;;;7.10;99.90;;;;;;5030625;28;20160;-75
2021/12/19 04:10:16;;;;;;;2.90;1.33;;;7.10;99.90;;;;;;5047219;28;20106;-76
2021/12/19 04:12:43;;;;;;;4.03;1.40;;;7.10;99.90;;;;;;5030694;28;20045;-73
2021/12/19 04:15:10;;;;;;;6.07;2.03;;;7.00;99.90;;;;;;5013448;28;20132;-73
2021/12/19 04:17:36;;;;;;;5.00;2.20;;;7.10;99.90;;;;;;5030696;28;20515;-73
2021/12/19 04:20:03;;;;;;;6.47;1.67;;;7.00;99.90;;;;;;5030224;28;20045;-73
2021/12/19 04:22:32;;;;;;;6.10;1.50;;;7.10;99.90;;;;;;5014041;28;20045;-73
2021/12/19 04:25:01;;;;;;;6.25;2.00;;;7.00;99.90;;;;;;5030117;28;20037;-73
2021/12/19 04:27:27;;;;;;;7.53;1.90;;;7.00;99.90;;;;;;5017478;28;20053;-73
2021/12/19 04:29:53;;;;;;;7.33;2.33;;;7.00;99.90;;;;;;5010530;28;20056;-73
2021/12/19 04:32:25;;;;;;;8.07;2.17;;;7.00;99.90;;;;;;5039231;28;20052;-73
2021/12/19 04:34:51;;;;;;;6.13;2.13;;;7.00;99.90;;;;;;5029477;28;20056;-73
2021/12/19 05:03:51;;;;;;;9.73;2.80;;;7.00;99.90;;;;;;5046698;28;20055;-73
2021/12/19 05:14:24;;;;;;;12.05;4.70;;;7.00;99.90;;;;;;5019135;28;20044;-73
2021/12/19 05:16:51;;;;;;;11.15;4.15;;;7.00;99.90;;;;;;5031338;28;20080;-73
2021/12/19 05:19:30;;;;;;;11.13;4.13;;;7.00;99.90;;;;;;5001508;28;20124;-72
2021/12/19 05:22:00;;;;;;;11.93;4.80;;;7.00;99.90;;;;;;5027603;28;20049;-73
2021/12/19 05:27:01;;;;;;;11.00;4.53;;;7.00;99.90;;;;;;5019353;28;21112;-73
2021/12/19 05:29:27;;;;;;;12.50;4.70;;;6.90;99.90;;;;;;5046891;28;20052;-76
2021/12/19 05:31:53;;;;;;;9.60;4.50;;;7.00;99.90;;;;;;5027841;28;20051;-75
2021/12/19 05:34:19;;;;;;;11.32;4.90;;;7.00;99.90;;;;;;5030085;28;20125;-76
2021/12/19 05:47:37;;;;;;;15.40;6.68;;;7.00;99.90;;;;;;5046055;28;20100;-76
2021/12/19 05:50:07;;;;;;;19.25;8.45;;;7.00;99.90;;;;;;5051857;28;20107;-77
2021/12/19 05:52:32;;;;;;;21.08;8.52;;;7.00;99.90;;;;;;5049225;28;20045;-76
2021/12/19 05:55:02;;;;;;;23.27;9.25;;;7.00;99.90;;;;;;5046408;28;20552;-76
2021/12/19 05:57:31;;;;;;;16.77;9.00;;;7.10;99.90;;;;;;5034095;28;20057;-76
2021/12/19 05:59:56;;;;;;;19.55;8.98;;;7.00;99.90;;;;;;5026409;28;20375;-76
2021/12/19 06:02:22;;;;;;;22.43;10.20;;;7.00;99.90;;;;;;5026353;28;20552;-75
2021/12/19 06:04:48;;;;;;;25.53;10.40;;;7.10;99.90;;;;;;5026431;28;20763;-76
2021/12/19 06:07:14;;;;;;;29.97;11.40;;;7.00;99.90;;;;;;5027463;28;20742;-76
2021/12/19 06:09:40;;;;;;;20.88;10.00;;;7.10;99.90;;;;;;5032859;28;20102;-76
2021/12/19 06:12:06;;;;;;;22.40;10.30;;;7.10;99.90;;;;;;5045204;28;20045;-77
2021/12/19 06:14:33;;;;;;;28.35;10.63;;;7.10;99.90;;;;;;5032076;28;20431;-76
2021/12/19 06:17:01;;;;;;;31.42;11.88;;;7.10;99.90;;;;;;5048931;28;20049;-76
2021/12/19 06:19:27;;;;;;;25.80;11.63;;;7.10;99.90;;;;;;5049704;28;20495;-76
2021/12/19 06:21:53;;;;;;;28.27;12.23;;;7.10;99.90;;;;;;5032505;28;20520;-76
2021/12/19 06:24:20;;;;;;;25.70;13.10;;;7.10;99.90;;;;;;5032935;28;20053;-76
2021/12/19 06:26:48;;;;;;;28.25;13.10;;;7.10;99.90;;;;;;5041890;28;20041;-77
2021/12/19 06:29:14;;;;;;;28.90;13.30;;;7.10;99.90;;;;;;4997266;28;20123;-76
2021/12/19 06:31:40;;;;;;;30.70;14.52;;;7.20;99.90;;;;;;5029289;28;20049;-77
2021/12/19 06:34:06;;;;;;;28.08;13.13;;;7.20;99.90;;;;;;5012434;28;20049;-76
2021/12/19 06:36:32;;;;;;;30.10;14.15;;;7.10;99.90;;;;;;5030222;28;20041;-76
2021/12/19 06:38:58;;;;;;;29.85;15.23;;;7.10;99.90;;;;;;5015669;28;20333;-77
2021/12/19 06:41:24;;;;;;;24.80;13.65;;;7.10;99.90;;;;;;5046673;28;20076;-77
2021/12/19 06:43:50;;;;;;;31.85;14.68;;;7.10;99.90;;;;;;5030954;28;20072;-76
2021/12/19 06:46:16;;;;;;;22.25;10.60;;;7.10;99.90;;;;;;5031066;28;20056;-77
2021/12/19 06:48:42;;;;;;;18.63;7.80;;;7.20;99.90;;;;;;5028757;28;20045;-76
2021/12/19 06:51:08;;;;;;;19.42;7.70;;;7.30;99.90;;;;;;5027695;28;20562;-77
2021/12/19 06:53:35;;;;;;;16.67;7.88;;;7.30;99.90;;;;;;5041191;28;20048;-76
2021/12/19 06:56:01;;;;;;;24.38;8.27;;;7.30;99.90;;;;;;5048937;28;20041;-77
2021/12/19 06:58:27;;;;;;;17.33;7.80;;;7.30;99.90;;;;;;5049639;28;20059;-76
2021/12/19 07:00:53;;;;;;;17.80;8.43;;;7.30;99.90;;;;;;5032270;28;20135;-77
2021/12/19 07:03:23;;;;;;;18.08;8.70;;;7.30;99.90;;;;;;5033057;28;20154;-76
2021/12/19 07:05:50;;;;;;;20.88;9.52;;;7.20;99.90;;;;;;5048699;28;20076;-76
2021/12/19 07:08:16;;;;;;;19.90;10.15;;;7.20;99.90;;;;;;5015070;28;20049;-76
2021/12/19 07:10:45;;;;;;;33.17;10.27;;;7.20;99.90;;;;;;5032716;28;20033;-76
2021/12/19 07:13:11;;;;;;;22.95;10.30;;;7.20;99.90;;;;;;5048424;28;20049;-77
2021/12/19 07:15:37;;;;;;;23.77;9.40;;;7.30;99.90;;;;;;5033067;28;20059;-76
2021/12/19 07:18:04;;;;;;;19.20;8.13;;;7.30;99.90;;;;;;5045326;28;20372;-76
2021/12/19 07:20:30;;;;;;;19.45;8.50;;;7.20;99.90;;;;;;5012896;28;20280;-76
2021/12/19 07:22:57;;;;;;;25.95;8.70;;;7.20;99.90;;;;;;5035781;28;20055;-77
2021/12/19 07:25:23;;;;;;;19.70;8.50;;;7.20;99.90;;;;;;5048133;28;20389;-77
2021/12/19 07:27:49;;;;;;;19.77;8.85;;;7.20;99.90;;;;;;5048069;28;20186;-73
2021/12/19 07:30:15;;;;;;;24.33;9.95;;;7.20;99.90;;;;;;5031921;28;20056;-72
2021/12/19 07:32:41;;;;;;;26.63;10.85;;;7.30;99.90;;;;;;5030118;28;20045;-73
2021/12/19 07:35:09;;;;;;;21.85;8.93;;;7.20;99.90;;;;;;5029168;28;20052;-72
2021/12/19 07:37:36;;;;;;;21.23;10.40;;;7.20;99.90;;;;;;5027675;28;20381;-73
2021/12/19 07:40:16;;;;;;;22.50;10.93;;;7.20;99.90;;;;;;5027226;28;20057;-72
2021/12/19 07:42:42;;;;;;;19.60;9.83;;;7.30;99.90;;;;;;5029327;28;20412;-72
2021/12/19 07:45:10;;;;;;;23.60;11.10;;;7.30;99.90;;;;;;5063655;28;20045;-72
2021/12/19 07:47:40;;;;;;;28.43;11.30;;;7.30;99.90;;;;;;5040074;28;20527;-73
2021/12/19 07:50:10;;;;;;;27.73;11.20;;;7.20;99.90;;;;;;5015693;28;20080;-72
2021/12/19 07:52:37;;;;;;;19.55;10.20;;;7.20;99.90;;;;;;4999772;28;20484;-72
2021/12/19 07:55:04;;;;;;;24.33;9.25;;;7.20;99.90;;;;;;5022857;28;20057;-72
2021/12/19 07:57:31;;;;;;;20.80;8.80;;;7.30;99.90;;;;;;5028037;28;20067;-72
2021/12/19 07:59:57;;;;;;;16.65;7.70;;;7.20;99.90;;;;;;5027011;28;20037;-72
2021/12/19 08:02:23;;;;;;;23.00;7.40;;;7.20;99.90;;;;;;5028107;28;20106;-73
2021/12/19 08:04:49;;;;;;;20.33;7.07;;;7.20;99.90;;;;;;5046225;28;20177;-72
2021/12/19 08:07:17;;;;;;;19.33;8.68;;;7.20;99.90;;;;;;5031015;28;20044;-72
2021/12/19 08:10:14;;;;;;;23.27;8.95;;;7.20;99.90;;;;;;5046944;28;20045;-72
2021/12/19 08:12:43;;;;;;;16.97;7.70;;;7.30;99.90;;;;;;5030589;28;20377;-72
2021/12/19 08:15:11;;;;;;;20.58;7.57;;;7.20;99.90;;;;;;5029338;28;20090;-72
2021/12/19 08:17:37;;;;;;;21.40;7.65;;;7.20;99.90;;;;;;5013919;28;20464;-72
2021/12/19 08:20:07;;;;;;;21.58;7.60;;;7.30;99.90;;;;;;5044654;28;20141;-72
2021/12/19 08:22:33;;;;;;;22.52;8.15;;;7.30;99.90;;;;;;5029107;28;20037;-72
2021/12/19 08:25:00;;;;;;;19.98;7.35;;;7.30;99.90;;;;;;5029232;28;20055;-72
2021/12/19 08:27:26;;;;;;;19.98;8.05;;;7.30;99.90;;;;;;5028417;28;20083;-72
2021/12/19 08:29:54;;;;;;;18.67;8.75;;;7.30;99.90;;;;;;5029317;28;20052;-73
2021/12/19 08:32:22;;;;;;;21.02;7.70;;;7.20;99.90;;;;;;5032541;28;20336;-72
2021/12/19 08:34:47;;;;;;;20.73;7.93;;;7.20;99.90;;;;;;5013836;28;20037;-73
2021/12/19 08:37:15;;;;;;;20.58;8.13;;;7.20;99.90;;;;;;5026709;28;20450;-72
2021/12/19 08:39:45;;;;;;;21.75;7.25;;;7.20;99.90;;;;;;5044370;28;20491;-72
2021/12/19 08:42:12;;;;;;;17.80;6.80;;;7.20;99.90;;;;;;5012680;28;20041;-72
2021/12/19 08:44:38;;;;;;;16.73;7.25;;;7.30;99.90;;;;;;5029613;28;20041;-72
2021/12/19 08:47:04;;;;;;;16.98;7.10;;;7.30;99.90;;;;;;5024930;28;20323;-72
2021/12/19 08:49:31;;;;;;;22.77;7.35;;;7.30;99.90;;;;;;5043209;28;20158;-72
2021/12/19 08:51:56;;;;;;;16.42;5.80;;;7.30;99.90;;;;;;5045507;28;20503;-72
2021/12/19 08:54:22;;;;;;;17.52;6.40;;;7.40;99.90;;;;;;5044320;28;20041;-72
2021/12/19 08:56:49;;;;;;;18.83;5.90;;;7.40;99.90;;;;;;5009084;28;20091;-72
2021/12/19 08:59:15;;;;;;;19.05;6.65;;;7.40;99.90;;;;;;5029591;28;20056;-72
2021/12/19 09:01:41;;;;;;;17.50;6.82;;;7.40;99.90;;;;;;5009560;28;20045;-72
2021/12/19 09:04:07;;;;;;;17.52;6.43;;;7.30;99.90;;;;;;5026957;28;20084;-72
2021/12/19 09:06:34;;;;;;;20.50;7.20;;;7.40;99.90;;;;;;5028149;28;20084;-72
2021/12/19 09:09:01;;;;;;;19.25;7.03;;;7.40;99.90;;;;;;5043990;28;20048;-73
2021/12/19 09:11:27;;;;;;;20.67;6.53;;;7.30;99.90;;;;;;5045019;28;20052;-72
2021/12/19 09:13:53;;;;;;;16.25;6.70;;;7.30;99.90;;;;;;5044017;28;20098;-73
2021/12/19 09:16:19;;;;;;;17.13;6.63;;;7.40;99.90;;;;;;5028022;28;20194;-72
2021/12/19 09:18:45;;;;;;;14.73;6.60;;;7.40;99.90;;;;;;5027257;28;20040;-72
2021/12/19 09:21:11;;;;;;;17.00;6.53;;;7.40;99.90;;;;;;5027096;28;20089;-72
2021/12/19 09:23:37;;;;;;;17.45;5.82;;;7.40;99.90;;;;;;5044094;28;20053;-72
2021/12/19 09:26:03;;;;;;;15.60;6.80;;;7.40;99.90;;;;;;5024902;28;20407;-72
2021/12/19 09:28:32;;;;;;;20.08;6.20;;;7.40;99.90;;;;;;5028266;28;20049;-72
2021/12/19 09:30:57;;;;;;;17.80;5.70;;;7.40;99.90;;;;;;5024989;28;20530;-72
2021/12/19 09:33:23;;;;;;;23.80;5.53;;;7.40;99.90;;;;;;5043670;28;20053;-72
2021/12/19 09:35:52;;;;;;;22.63;6.68;;;7.40;99.90;;;;;;5027612;28;20604;-72
2021/12/19 09:38:20;;;;;;;22.48;5.95;;;7.40;99.90;;;;;;5044365;28;20059;-72
2021/12/19 09:40:46;;;;;;;17.55;6.03;;;7.50;99.90;;;;;;5044685;28;20117;-72
2021/12/19 09:45:59;;;;;;;20.67;6.38;;;7.50;99.90;;;;;;5043779;28;20052;-72
2021/12/19 09:48:26;;;;;;;23.63;6.15;;;7.60;99.90;;;;;;5013110;28;21457;-72
2021/12/19 09:50:54;;;;;;;17.20;5.72;;;7.60;99.90;;;;;;5014833;28;20052;-74
2021/12/19 09:53:20;;;;;;;15.48;5.22;;;7.60;99.90;;;;;;5048554;28;20053;-72
2021/12/19 09:55:46;;;;;;;16.48;5.78;;;7.60;99.90;;;;;;5043861;28;20455;-72
2021/12/19 09:58:11;;;;;;;15.40;5.05;;;7.60;99.90;;;;;;5047310;28;20041;-73
2021/12/19 10:00:38;;;;;;;16.70;5.18;;;7.60;99.90;;;;;;5030718;28;20087;-73
2021/12/19 10:03:04;;;;;;;19.67;6.00;;;7.60;99.90;;;;;;5047560;28;20075;-72
2021/12/19 10:05:30;;;;;;;17.17;5.40;;;7.60;99.90;;;;;;5028741;28;20076;-72
2021/12/19 10:07:58;;;;;;;20.30;5.57;;;7.60;99.90;;;;;;5047657;28;20045;-72
2021/12/19 10:10:58;;;;;;;12.10;4.45;;;7.60;99.90;;;;;;5032074;28;20053;-72
2021/12/19 10:13:35;;;;;;;19.83;5.18;;;7.70;99.90;;;;;;5048214;28;20128;-72
2021/12/19 10:16:20;;;;;;;19.00;5.45;;;7.60;99.90;;;;;;5043621;28;20121;-72
2021/12/19 10:18:51;;;;;;;14.55;5.72;;;7.60;99.90;;;;;;5046622;28;20541;-72
2021/12/19 10:21:19;;;;;;;16.02;6.05;;;7.60;99.90;;;;;;5047595;28;20080;-72
2021/12/19 10:23:45;;;;;;;15.98;6.18;;;7.60;99.90;;;;;;4996555;28;20541;-73
2021/12/19 10:26:12;;;;;;;16.10;6.20;;;7.60;99.90;;;;;;5027700;28;20049;-72
2021/12/19 10:28:53;;;;;;;19.92;5.50;;;7.60;99.90;;;;;;5047988;28;20496;-72
2021/12/19 10:31:19;;;;;;;19.52;5.75;;;7.60;99.90;;;;;;5030668;28;20211;-72
2021/12/19 10:33:47;;;;;;;15.15;5.90;;;7.70;99.90;;;;;;5031959;28;20134;-72
2021/12/19 10:36:14;;;;;;;18.85;5.22;;;7.60;99.90;;;;;;5031845;28;20084;-72
2021/12/19 10:38:46;;;;;;;17.70;5.78;;;7.70;99.90;;;;;;5031705;28;20041;-73
2021/12/19 10:41:17;;;;;;;21.50;6.55;;;7.70;99.90;;;;;;5048186;28;20044;-72
2021/12/19 10:44:05;;;;;;;23.30;6.68;;;7.70;99.90;;;;;;5031950;28;20040;-72
2021/12/19 10:46:39;;;;;;;15.02;5.10;;;7.70;99.90;;;;;;5047206;28;20048;-72
2021/12/19 10:49:24;;;;;;;13.80;4.93;;;7.70;99.90;;;;;;5029583;28;20044;-72
2021/12/19 10:51:50;;;;;;;14.05;4.72;;;7.70;99.90;;;;;;5047028;28;20052;-73
2021/12/19 10:54:16;;;;;;;14.18;4.90;;;7.80;99.90;;;;;;5042714;28;20186;-73
2021/12/19 10:56:42;;;;;;;17.40;5.68;;;7.80;99.90;;;;;;5035945;28;20543;-73
2021/12/19 10:59:17;;;;;;;18.02;5.95;;;7.80;99.90;;;;;;5027443;28;20048;-73
2021/12/19 11:01:48;;;;;;;21.13;6.68;;;7.80;99.90;;;;;;5028663;28;20049;-73
2021/12/19 11:04:14;;;;;;;21.45;6.78;;;7.80;99.90;;;;;;5029044;28;20127;-73
2021/12/19 11:06:40;;;;;;;17.73;5.93;;;7.80;99.90;;;;;;5029418;28;20049;-73
2021/12/19 11:09:08;;;;;;;19.67;5.78;;;7.80;99.90;;;;;;5028649;28;20454;-73
2021/12/19 11:11:46;;;;;;;18.08;6.28;;;7.90;99.90;;;;;;5041223;28;20034;-73
2021/12/19 11:14:19;;;;;;;27.55;7.72;;;7.90;99.90;;;;;;5033256;28;20041;-73
2021/12/19 11:16:46;;;;;;;18.77;6.95;;;7.80;99.90;;;;;;5035297;28;20566;-73
2021/12/19 11:19:12;;;;;;;18.48;6.63;;;7.80;99.90;;;;;;5035662;28;20128;-73
2021/12/19 11:21:38;;;;;;;21.63;6.18;;;7.80;99.90;;;;;;5014023;28;20079;-73
2021/12/19 11:24:08;;;;;;;20.83;6.78;;;7.80;99.90;;;;;;5031552;28;20049;-73
2021/12/19 11:26:35;;;;;;;23.00;5.93;;;7.90;99.90;;;;;;5029021;28;20110;-72
2021/12/19 11:29:01;;;;;;;18.85;6.25;;;7.90;99.90;;;;;;5009973;28;20056;-72
2021/12/19 11:31:31;;;;;;;18.50;6.65;;;7.90;99.90;;;;;;5048273;28;20127;-73
2021/12/19 11:34:21;;;;;;;22.85;7.50;;;7.90;99.90;;;;;;5036304;28;20077;-73
2021/12/19 11:36:59;;;;;;;28.05;11.80;;;7.90;99.90;;;;;;5028976;28;20074;-73
2021/12/19 11:39:30;;;;;;;33.90;14.68;;;7.90;99.90;;;;;;5032124;28;20042;-73
2021/12/19 11:42:13;;;;;;;37.92;16.45;;;7.90;99.90;;;;;;5027096;28;20052;-73
2021/12/19 11:47:52;;;;;;;30.23;12.10;;;7.90;99.90;;;;;;5035147;28;20045;-73
2021/12/19 11:50:28;;;;;;;22.70;8.82;;;7.90;99.90;;;;;;5016120;28;20060;-73
2021/12/19 11:53:16;;;;;;;27.40;10.40;;;7.80;99.90;;;;;;5035968;28;20115;-73
2021/12/19 11:55:47;;;;;;;36.40;17.05;;;7.90;99.90;;;;;;5011999;28;20119;-73
2021/12/19 11:58:16;;;;;;;38.45;17.52;;;7.90;99.90;;;;;;5028053;28;20049;-73
2021/12/19 12:00:50;;;;;;;31.63;13.48;;;7.90;99.90;;;;;;5033788;28;20047;-73
2021/12/19 12:03:15;;;;;;;29.38;11.15;;;7.90;99.90;;;;;;5026607;28;20052;-73
2021/12/19 12:05:53;;;;;;;21.70;7.25;;;7.90;99.90;;;;;;5040070;28;20045;-73
2021/12/19 12:08:24;;;;;;;18.38;4.68;;;7.90;99.90;;;;;;5026302;28;20622;-76
2021/12/19 12:10:57;;;;;;;16.48;4.25;;;7.90;99.90;;;;;;5012870;28;20060;-73
2021/12/19 12:13:27;;;;;;;12.40;3.90;;;7.90;99.90;;;;;;5044967;28;20127;-73
2021/12/19 12:16:02;;;;;;;22.17;4.30;;;7.90;99.90;;;;;;5041685;28;20079;-73
2021/12/19 12:18:39;;;;;;;15.85;4.22;;;8.00;99.90;;;;;;5028786;28;20291;-73
2021/12/19 12:21:19;;;;;;;17.60;4.63;;;8.00;99.90;;;;;;5028759;28;20044;-73
2021/12/19 12:23:58;;;;;;;16.90;3.80;;;8.00;99.90;;;;;;5044159;28;20041;-73
2021/12/19 12:26:36;;;;;;;16.92;4.07;;;8.00;99.90;;;;;;5046448;28;20259;-73
2021/12/19 12:29:02;;;;;;;16.58;3.95;;;8.00;99.90;;;;;;5028472;28;20041;-73
2021/12/19 12:31:31;;;;;;;18.23;4.45;;;8.00;99.90;;;;;;5043244;28;20194;-73
2021/12/19 12:33:57;;;;;;;17.65;3.80;;;8.00;99.90;;;;;;5045535;28;20068;-73
2021/12/19 12:36:23;;;;;;;14.82;3.85;;;8.00;99.90;;;;;;5029234;28;20500;-73
2021/12/19 12:38:52;;;;;;;17.98;3.75;;;8.00;99.90;;;;;;5045973;28;20515;-73
2021/12/19 12:41:28;;;;;;;18.42;4.35;;;8.00;99.90;;;;;;5045630;28;20045;-73
2021/12/19 12:44:02;;;;;;;15.90;3.50;;;8.00;99.90;;;;;;5042280;28;20396;-73
2021/12/19 12:46:31;;;;;;;18.88;4.43;;;8.00;99.90;;;;;;5045299;28;20083;-73
2021/12/19 12:49:10;;;;;;;13.82;3.50;;;8.00;99.90;;;;;;5043142;28;20055;-73
2021/12/19 12:51:39;;;;;;;17.45;4.20;;;8.10;99.90;;;;;;5025669;28;20412;-73
2021/12/19 12:54:18;;;;;;;19.42;4.90;;;8.10;99.90;;;;;;5043731;28;20048;-73
2021/12/19 12:56:50;;;;;;;17.70;4.15;;;8.00;99.90;;;;;;5045164;28;20503;-73
2021/12/19 12:59:38;;;;;;;17.73;3.92;;;8.10;99.90;;;;;;5044498;28;20506;-73
2021/12/19 13:04:47;;;;;;;18.33;4.00;;;8.00;99.90;;;;;;5042919;28;20116;-73
2021/12/19 13:07:19;;;;;;;18.98;4.47;;;8.00;99.90;;;;;;5027682;28;20399;-73
2021/12/19 13:09:49;;;;;;;17.58;4.15;;;8.00;99.90;;;;;;5044800;28;20053;-73
2021/12/19 13:12:17;;;;;;;18.52;4.95;;;8.00;99.90;;;;;;5023295;28;20468;-73
2021/12/19 13:14:48;;;;;;;20.35;6.32;;;8.00;99.90;;;;;;5043032;28;20048;-73
2021/12/19 13:17:18;;;;;;;18.05;4.55;;;8.00;99.90;;;;;;5044348;28;20052;-73
2021/12/19 13:19:52;;;;;;;19.15;4.63;;;8.00;99.90;;;;;;5043683;28;20049;-73
2021/12/19 13:22:24;;;;;;;22.92;5.50;;;8.10;99.90;;;;;;5026438;28;20095;-73
2021/12/19 13:24:51;;;;;;;17.55;4.55;;;8.10;99.90;;;;;;5027894;28;20049;-73
2021/12/19 13:27:18;;;;;;;19.63;5.57;;;8.00;99.90;;;;;;5028371;28;20556;-73
2021/12/19 13:30:06;;;;;;;18.52;4.75;;;8.00;99.90;;;;;;5044789;28;20041;-73
2021/12/19 13:32:36;;;;;;;20.63;5.70;;;8.00;99.90;;;;;;5022630;28;20045;-73
2021/12/19 13:35:11;;;;;;;20.58;4.47;;;8.00;99.90;;;;;;5027290;28;20041;-73
2021/12/19 13:37:53;;;;;;;16.30;4.57;;;8.10;99.90;;;;;;5044420;28;20069;-73
2021/12/19 13:40:33;;;;;;;26.80;5.32;;;8.10;99.90;;;;;;5043769;28;20083;-74
2021/12/19 13:43:11;;;;;;;21.83;4.65;;;8.10;99.90;;;;;;5027211;28;20053;-73
2021/12/19 13:45:48;;;;;;;19.58;5.03;;;8.10;99.90;;;;;;5026034;28;20459;-73
2021/12/19 13:48:15;;;;;;;23.85;5.38;;;8.10;99.90;;;;;;5027531;28;20407;-76
2021/12/19 13:50:52;;;;;;;25.63;5.18;;;8.10;99.90;;;;;;5044428;28;20124;-76
2021/12/19 13:53:18;;;;;;;27.00;5.13;;;8.10;99.90;;;;;;5027351;28;20055;-76
2021/12/19 13:55:51;;;;;;;23.92;6.53;;;8.10;99.90;;;;;;5044251;28;20048;-76
2021/12/19 13:58:18;;;;;;;19.80;4.72;;;8.00;99.90;;;;;;5041820;28;20044;-76
2021/12/19 14:00:48;;;;;;;30.83;5.40;;;8.10;99.90;;;;;;5045517;28;20052;-72
2021/12/19 14:03:14;;;;;;;22.70;6.03;;;8.10;99.90;;;;;;5042399;28;20045;-73
2021/12/19 14:05:41;;;;;;;18.77;5.43;;;8.20;99.90;;;;;;5027605;28;20123;-73
2021/12/19 14:08:22;;;;;;;17.88;4.50;;;8.10;99.90;;;;;;5026511;28;20067;-73
2021/12/19 14:11:12;;;;;;;15.68;3.80;;;8.20;99.90;;;;;;5043274;28;20140;-73
2021/12/19 14:13:41;;;;;;;20.17;4.43;;;8.20;99.90;;;;;;5027026;28;20096;-73
2021/12/19 14:16:09;;;;;;;19.48;4.93;;;8.20;99.90;;;;;;5010453;28;20095;-73
2021/12/19 14:18:45;;;;;;;20.23;4.15;;;8.20;99.90;;;;;;5044017;28;20060;-73